sensor_id;sensor_type;location;lat;lon;timestamp;P1;durP1;ratioP1;P2;durP2;ratioP2
21581;SDS011;10952;50.836;4.348;2022-10-16T00:01:42;3.33;;;1.20;;
21581;SDS011;10952;50.836;4.348;2022-10-16T00:04:08;3.40;;;1.17;;
21581;SDS011;10952;50.836;4.348;2022-10-16T00:06:34;2.23;;;0.97;;
21581;SDS011;10952;50.836;4.348;2022-10-16T00:08:59;3.10;;;1.00;;
21581;SDS011;10952;50.836;4.348;2022-10-16T00:11:27;3.50;;;1.00;;
21581;SDS011;10952;50.836;4.348;2022-10-16T00:13:56;3.00;;;1.30;;
21581;SDS011;10952;50.836;4.348;2022-10-16T00:16:24;3.67;;;1.23;;
21581;SDS011;10952;50.836;4.348;2022-10-16T00:18:50;2.60;;;1.13;;
21581;SDS011;10952;50.836;4.348;2022-10-16T00:21:16;6.20;;;1.20;;
21581;SDS011;10952;50.836;4.348;2022-10-16T00:23:51;2.77;;;1.20;;
21581;SDS011;10952;50.836;4.348;2022-10-16T00:26:17;2.20;;;1.00;;
21581;SDS011;10952;50.836;4.348;2022-10-16T00:28:50;2.60;;;1.40;;
21581;SDS011;10952;50.836;4.348;2022-10-16T00:31:17;4.30;;;1.20;;
21581;SDS011;10952;50.836;4.348;2022-10-16T00:33:44;1.87;;;0.90;;
21581;SDS011;10952;50.836;4.348;2022-10-16T00:36:11;4.47;;;1.30;;
21581;SDS011;10952;50.836;4.348;2022-10-16T00:38:38;4.07;;;1.37;;
21581;SDS011;10952;50.836;4.348;2022-10-16T00:41:05;2.93;;;1.50;;
21581;SDS011;10952;50.836;4.348;2022-10-16T00:46:21;2.40;;;1.33;;
21581;SDS011;10952;50.836;4.348;2022-10-16T00:51:46;3.67;;;1.43;;
21581;SDS011;10952;50.836;4.348;2022-10-16T00:54:19;3.63;;;1.37;;
21581;SDS011;10952;50.836;4.348;2022-10-16T00:56:48;2.50;;;1.23;;
21581;SDS011;10952;50.836;4.348;2022-10-16T00:59:19;2.53;;;1.07;;
21581;SDS011;10952;50.836;4.348;2022-10-16T01:01:50;3.10;;;1.30;;
21581;SDS011;10952;50.836;4.348;2022-10-16T01:04:16;1.80;;;1.07;;
21581;SDS011;10952;50.836;4.348;2022-10-16T01:06:43;3.37;;;1.27;;
21581;SDS011;10952;50.836;4.348;2022-10-16T01:09:22;3.33;;;1.53;;
21581;SDS011;10952;50.836;4.348;2022-10-16T01:15:02;4.90;;;1.50;;
21581;SDS011;10952;50.836;4.348;2022-10-16T01:28:21;3.97;;;1.27;;
21581;SDS011;10952;50.836;4.348;2022-10-16T01:30:51;2.30;;;1.13;;
21581;SDS011;10952;50.836;4.348;2022-10-16T01:33:26;2.63;;;1.33;;
21581;SDS011;10952;50.836;4.348;2022-10-16T01:36:05;2.93;;;1.30;;
21581;SDS011;10952;50.836;4.348;2022-10-16T01:38:37;3.07;;;1.13;;
21581;SDS011;10952;50.836;4.348;2022-10-16T01:41:09;6.93;;;1.60;;
21581;SDS011;10952;50.836;4.348;2022-10-16T01:43:56;3.27;;;1.43;;
21581;SDS011;10952;50.836;4.348;2022-10-16T01:46:30;3.13;;;1.30;;
21581;SDS011;10952;50.836;4.348;2022-10-16T01:48:56;5.07;;;1.53;;
21581;SDS011;10952;50.836;4.348;2022-10-16T01:51:24;3.57;;;1.20;;
21581;SDS011;10952;50.836;4.348;2022-10-16T01:53:52;5.87;;;1.20;;
21581;SDS011;10952;50.836;4.348;2022-10-16T01:56:20;3.03;;;1.30;;
21581;SDS011;10952;50.836;4.348;2022-10-16T01:58:56;4.23;;;1.50;;
21581;SDS011;10952;50.836;4.348;2022-10-16T02:01:44;4.03;;;1.40;;
21581;SDS011;10952;50.836;4.348;2022-10-16T02:04:18;6.73;;;1.70;;
21581;SDS011;10952;50.836;4.348;2022-10-16T02:06:53;4.97;;;1.50;;
21581;SDS011;10952;50.836;4.348;2022-10-16T02:09:19;2.60;;;1.50;;
21581;SDS011;10952;50.836;4.348;2022-10-16T02:11:45;5.60;;;1.47;;
21581;SDS011;10952;50.836;4.348;2022-10-16T02:14:11;4.60;;;1.50;;
21581;SDS011;10952;50.836;4.348;2022-10-16T02:16:40;3.10;;;1.50;;
21581;SDS011;10952;50.836;4.348;2022-10-16T02:19:08;4.17;;;1.50;;
21581;SDS011;10952;50.836;4.348;2022-10-16T02:29:33;2.33;;;1.20;;
21581;SDS011;10952;50.836;4.348;2022-10-16T02:32:04;2.90;;;1.40;;
21581;SDS011;10952;50.836;4.348;2022-10-16T02:34:32;5.00;;;1.53;;
21581;SDS011;10952;50.836;4.348;2022-10-16T02:37:00;4.97;;;1.20;;
21581;SDS011;10952;50.836;4.348;2022-10-16T02:39:28;2.33;;;1.23;;
21581;SDS011;10952;50.836;4.348;2022-10-16T02:41:55;3.37;;;1.60;;
21581;SDS011;10952;50.836;4.348;2022-10-16T02:44:21;4.57;;;1.63;;
21581;SDS011;10952;50.836;4.348;2022-10-16T02:46:46;3.90;;;1.50;;
21581;SDS011;10952;50.836;4.348;2022-10-16T02:49:12;5.13;;;1.80;;
21581;SDS011;10952;50.836;4.348;2022-10-16T02:51:38;2.80;;;1.40;;
21581;SDS011;10952;50.836;4.348;2022-10-16T02:54:03;4.47;;;1.67;;
21581;SDS011;10952;50.836;4.348;2022-10-16T02:56:29;5.93;;;1.90;;
21581;SDS011;10952;50.836;4.348;2022-10-16T02:58:56;7.57;;;2.03;;
21581;SDS011;10952;50.836;4.348;2022-10-16T03:01:22;3.40;;;1.50;;
21581;SDS011;10952;50.836;4.348;2022-10-16T03:03:48;2.77;;;1.70;;
21581;SDS011;10952;50.836;4.348;2022-10-16T03:06:13;2.47;;;1.60;;
21581;SDS011;10952;50.836;4.348;2022-10-16T03:08:39;3.63;;;1.63;;
21581;SDS011;10952;50.836;4.348;2022-10-16T03:11:05;5.13;;;2.00;;
21581;SDS011;10952;50.836;4.348;2022-10-16T03:13:30;3.43;;;1.70;;
21581;SDS011;10952;50.836;4.348;2022-10-16T03:15:56;4.77;;;1.80;;
21581;SDS011;10952;50.836;4.348;2022-10-16T03:18:21;3.10;;;1.90;;
21581;SDS011;10952;50.836;4.348;2022-10-16T03:20:47;4.33;;;1.70;;
21581;SDS011;10952;50.836;4.348;2022-10-16T03:23:13;5.47;;;1.90;;
21581;SDS011;10952;50.836;4.348;2022-10-16T03:25:39;2.73;;;1.73;;
21581;SDS011;10952;50.836;4.348;2022-10-16T03:28:04;3.93;;;1.80;;
21581;SDS011;10952;50.836;4.348;2022-10-16T03:30:30;5.53;;;2.13;;
21581;SDS011;10952;50.836;4.348;2022-10-16T03:32:56;5.73;;;1.70;;
21581;SDS011;10952;50.836;4.348;2022-10-16T03:35:22;3.70;;;1.87;;
21581;SDS011;10952;50.836;4.348;2022-10-16T03:37:48;2.63;;;1.50;;
21581;SDS011;10952;50.836;4.348;2022-10-16T03:40:14;3.93;;;1.87;;
21581;SDS011;10952;50.836;4.348;2022-10-16T03:42:40;6.20;;;2.10;;
21581;SDS011;10952;50.836;4.348;2022-10-16T03:45:06;2.33;;;1.40;;
21581;SDS011;10952;50.836;4.348;2022-10-16T03:47:32;3.37;;;1.73;;
21581;SDS011;10952;50.836;4.348;2022-10-16T03:49:58;5.10;;;2.07;;
21581;SDS011;10952;50.836;4.348;2022-10-16T03:52:24;5.13;;;1.70;;
21581;SDS011;10952;50.836;4.348;2022-10-16T03:54:50;6.73;;;2.10;;
21581;SDS011;10952;50.836;4.348;2022-10-16T03:57:16;4.43;;;1.63;;
21581;SDS011;10952;50.836;4.348;2022-10-16T03:59:42;3.63;;;1.90;;
21581;SDS011;10952;50.836;4.348;2022-10-16T04:02:07;5.47;;;2.03;;
21581;SDS011;10952;50.836;4.348;2022-10-16T04:04:33;7.20;;;2.33;;
21581;SDS011;10952;50.836;4.348;2022-10-16T04:06:59;4.73;;;1.80;;
21581;SDS011;10952;50.836;4.348;2022-10-16T04:09:25;4.83;;;1.70;;
21581;SDS011;10952;50.836;4.348;2022-10-16T04:11:50;7.17;;;2.40;;
21581;SDS011;10952;50.836;4.348;2022-10-16T04:14:16;6.40;;;1.70;;
21581;SDS011;10952;50.836;4.348;2022-10-16T04:16:42;2.93;;;1.40;;
21581;SDS011;10952;50.836;4.348;2022-10-16T04:19:08;3.63;;;1.63;;
21581;SDS011;10952;50.836;4.348;2022-10-16T04:21:35;4.63;;;1.60;;
21581;SDS011;10952;50.836;4.348;2022-10-16T04:24:00;4.00;;;1.37;;
21581;SDS011;10952;50.836;4.348;2022-10-16T04:26:26;3.90;;;1.50;;
21581;SDS011;10952;50.836;4.348;2022-10-16T04:28:52;4.43;;;1.77;;
21581;SDS011;10952;50.836;4.348;2022-10-16T04:31:17;2.70;;;1.80;;
21581;SDS011;10952;50.836;4.348;2022-10-16T04:33:43;4.60;;;1.90;;
21581;SDS011;10952;50.836;4.348;2022-10-16T04:36:09;4.03;;;1.67;;
21581;SDS011;10952;50.836;4.348;2022-10-16T04:38:34;3.80;;;1.57;;
21581;SDS011;10952;50.836;4.348;2022-10-16T04:41:02;3.70;;;1.70;;
21581;SDS011;10952;50.836;4.348;2022-10-16T04:43:28;4.60;;;2.40;;
21581;SDS011;10952;50.836;4.348;2022-10-16T04:45:54;8.53;;;1.83;;
21581;SDS011;10952;50.836;4.348;2022-10-16T04:48:21;3.83;;;1.63;;
21581;SDS011;10952;50.836;4.348;2022-10-16T04:50:47;7.03;;;2.13;;
21581;SDS011;10952;50.836;4.348;2022-10-16T04:53:13;4.30;;;2.10;;
21581;SDS011;10952;50.836;4.348;2022-10-16T04:55:39;7.43;;;1.87;;
21581;SDS011;10952;50.836;4.348;2022-10-16T04:58:06;8.17;;;2.40;;
21581;SDS011;10952;50.836;4.348;2022-10-16T05:00:32;4.60;;;1.97;;
21581;SDS011;10952;50.836;4.348;2022-10-16T05:02:58;6.97;;;1.97;;
21581;SDS011;10952;50.836;4.348;2022-10-16T05:05:25;7.43;;;2.10;;
21581;SDS011;10952;50.836;4.348;2022-10-16T05:07:52;4.03;;;1.90;;
21581;SDS011;10952;50.836;4.348;2022-10-16T05:10:18;4.13;;;1.73;;
21581;SDS011;10952;50.836;4.348;2022-10-16T05:12:44;8.17;;;2.83;;
21581;SDS011;10952;50.836;4.348;2022-10-16T05:15:10;4.57;;;2.13;;
21581;SDS011;10952;50.836;4.348;2022-10-16T05:17:35;4.53;;;1.70;;
21581;SDS011;10952;50.836;4.348;2022-10-16T05:20:01;4.70;;;2.00;;
21581;SDS011;10952;50.836;4.348;2022-10-16T05:22:28;6.13;;;2.23;;
21581;SDS011;10952;50.836;4.348;2022-10-16T05:24:53;7.73;;;2.70;;
21581;SDS011;10952;50.836;4.348;2022-10-16T05:27:19;8.33;;;2.83;;
21581;SDS011;10952;50.836;4.348;2022-10-16T05:29:46;5.57;;;2.43;;
21581;SDS011;10952;50.836;4.348;2022-10-16T05:32:13;6.80;;;2.70;;
21581;SDS011;10952;50.836;4.348;2022-10-16T05:34:39;6.70;;;2.33;;
21581;SDS011;10952;50.836;4.348;2022-10-16T05:37:05;8.30;;;2.50;;
21581;SDS011;10952;50.836;4.348;2022-10-16T05:39:30;7.20;;;2.33;;
21581;SDS011;10952;50.836;4.348;2022-10-16T05:41:56;4.17;;;2.47;;
21581;SDS011;10952;50.836;4.348;2022-10-16T05:44:22;5.87;;;2.30;;
21581;SDS011;10952;50.836;4.348;2022-10-16T05:46:47;4.67;;;2.47;;
21581;SDS011;10952;50.836;4.348;2022-10-16T05:49:13;4.30;;;2.53;;
21581;SDS011;10952;50.836;4.348;2022-10-16T05:51:39;6.87;;;2.67;;
21581;SDS011;10952;50.836;4.348;2022-10-16T05:54:06;3.77;;;2.37;;
21581;SDS011;10952;50.836;4.348;2022-10-16T05:56:31;4.20;;;2.20;;
21581;SDS011;10952;50.836;4.348;2022-10-16T05:58:57;5.43;;;2.67;;
21581;SDS011;10952;50.836;4.348;2022-10-16T06:01:23;5.50;;;2.60;;
21581;SDS011;10952;50.836;4.348;2022-10-16T06:03:49;5.03;;;2.40;;
21581;SDS011;10952;50.836;4.348;2022-10-16T06:06:22;4.00;;;2.40;;
21581;SDS011;10952;50.836;4.348;2022-10-16T06:08:51;7.43;;;2.37;;
21581;SDS011;10952;50.836;4.348;2022-10-16T06:11:21;7.43;;;2.57;;
21581;SDS011;10952;50.836;4.348;2022-10-16T06:13:52;7.13;;;2.00;;
21581;SDS011;10952;50.836;4.348;2022-10-16T06:16:18;4.03;;;2.60;;
21581;SDS011;10952;50.836;4.348;2022-10-16T06:18:45;5.03;;;2.47;;
21581;SDS011;10952;50.836;4.348;2022-10-16T06:21:19;5.97;;;2.57;;
21581;SDS011;10952;50.836;4.348;2022-10-16T06:23:46;10.60;;;4.60;;
21581;SDS011;10952;50.836;4.348;2022-10-16T06:26:14;6.13;;;2.40;;
21581;SDS011;10952;50.836;4.348;2022-10-16T06:28:42;5.77;;;2.00;;
21581;SDS011;10952;50.836;4.348;2022-10-16T06:31:09;8.23;;;2.70;;
21581;SDS011;10952;50.836;4.348;2022-10-16T06:33:35;4.63;;;2.17;;
21581;SDS011;10952;50.836;4.348;2022-10-16T06:38:33;6.37;;;2.53;;
21581;SDS011;10952;50.836;4.348;2022-10-16T06:40:59;6.83;;;3.10;;
21581;SDS011;10952;50.836;4.348;2022-10-16T06:43:28;9.90;;;2.73;;
21581;SDS011;10952;50.836;4.348;2022-10-16T06:45:57;7.10;;;3.23;;
21581;SDS011;10952;50.836;4.348;2022-10-16T06:48:24;10.40;;;2.70;;
21581;SDS011;10952;50.836;4.348;2022-10-16T06:50:58;4.03;;;1.77;;
21581;SDS011;10952;50.836;4.348;2022-10-16T06:53:27;11.67;;;2.80;;
21581;SDS011;10952;50.836;4.348;2022-10-16T06:55:55;2.93;;;2.00;;
21581;SDS011;10952;50.836;4.348;2022-10-16T06:58:21;4.03;;;1.90;;
21581;SDS011;10952;50.836;4.348;2022-10-16T07:00:47;7.70;;;2.20;;
21581;SDS011;10952;50.836;4.348;2022-10-16T07:03:12;3.70;;;2.00;;
21581;SDS011;10952;50.836;4.348;2022-10-16T07:05:39;3.60;;;1.83;;
21581;SDS011;10952;50.836;4.348;2022-10-16T07:08:05;5.47;;;2.27;;
21581;SDS011;10952;50.836;4.348;2022-10-16T07:10:31;5.00;;;2.40;;
21581;SDS011;10952;50.836;4.348;2022-10-16T07:12:57;5.23;;;2.40;;
21581;SDS011;10952;50.836;4.348;2022-10-16T07:15:23;6.13;;;2.40;;
21581;SDS011;10952;50.836;4.348;2022-10-16T07:17:50;5.70;;;2.40;;
21581;SDS011;10952;50.836;4.348;2022-10-16T07:20:16;8.57;;;2.73;;
21581;SDS011;10952;50.836;4.348;2022-10-16T07:22:41;5.77;;;2.43;;
21581;SDS011;10952;50.836;4.348;2022-10-16T07:25:07;7.13;;;2.80;;
21581;SDS011;10952;50.836;4.348;2022-10-16T07:27:33;6.10;;;2.50;;
21581;SDS011;10952;50.836;4.348;2022-10-16T07:29:59;5.10;;;2.53;;
21581;SDS011;10952;50.836;4.348;2022-10-16T07:32:26;5.40;;;2.43;;
21581;SDS011;10952;50.836;4.348;2022-10-16T07:34:52;5.37;;;2.27;;
21581;SDS011;10952;50.836;4.348;2022-10-16T07:37:18;6.57;;;2.80;;
21581;SDS011;10952;50.836;4.348;2022-10-16T07:39:43;8.87;;;3.53;;
21581;SDS011;10952;50.836;4.348;2022-10-16T07:42:09;5.83;;;2.97;;
21581;SDS011;10952;50.836;4.348;2022-10-16T07:44:35;10.63;;;3.00;;
21581;SDS011;10952;50.836;4.348;2022-10-16T07:47:00;6.10;;;2.77;;
21581;SDS011;10952;50.836;4.348;2022-10-16T07:49:26;6.13;;;3.10;;
21581;SDS011;10952;50.836;4.348;2022-10-16T07:51:52;8.10;;;3.33;;
21581;SDS011;10952;50.836;4.348;2022-10-16T07:54:18;7.67;;;3.60;;
21581;SDS011;10952;50.836;4.348;2022-10-16T07:56:44;8.10;;;4.40;;
21581;SDS011;10952;50.836;4.348;2022-10-16T07:59:09;7.13;;;3.10;;
21581;SDS011;10952;50.836;4.348;2022-10-16T08:01:35;5.57;;;2.83;;
21581;SDS011;10952;50.836;4.348;2022-10-16T08:04:01;6.90;;;4.10;;
21581;SDS011;10952;50.836;4.348;2022-10-16T08:06:27;7.77;;;3.07;;
21581;SDS011;10952;50.836;4.348;2022-10-16T08:08:52;5.40;;;2.87;;
21581;SDS011;10952;50.836;4.348;2022-10-16T08:11:18;6.43;;;2.80;;
21581;SDS011;10952;50.836;4.348;2022-10-16T08:13:43;9.87;;;3.03;;
21581;SDS011;10952;50.836;4.348;2022-10-16T08:16:09;9.10;;;2.93;;
21581;SDS011;10952;50.836;4.348;2022-10-16T08:18:38;6.83;;;2.77;;
21581;SDS011;10952;50.836;4.348;2022-10-16T08:21:06;6.90;;;3.03;;
21581;SDS011;10952;50.836;4.348;2022-10-16T08:23:36;8.13;;;2.63;;
21581;SDS011;10952;50.836;4.348;2022-10-16T08:26:02;9.97;;;4.67;;
21581;SDS011;10952;50.836;4.348;2022-10-16T08:28:31;9.73;;;2.90;;
21581;SDS011;10952;50.836;4.348;2022-10-16T08:31:04;4.60;;;2.20;;
21581;SDS011;10952;50.836;4.348;2022-10-16T08:33:30;9.37;;;4.13;;
21581;SDS011;10952;50.836;4.348;2022-10-16T08:35:56;5.83;;;3.13;;
21581;SDS011;10952;50.836;4.348;2022-10-16T08:38:22;7.23;;;2.80;;
21581;SDS011;10952;50.836;4.348;2022-10-16T08:40:47;5.80;;;2.23;;
21581;SDS011;10952;50.836;4.348;2022-10-16T08:48:57;9.07;;;2.87;;
21581;SDS011;10952;50.836;4.348;2022-10-16T08:53:58;4.17;;;2.07;;
21581;SDS011;10952;50.836;4.348;2022-10-16T08:56:36;7.93;;;1.93;;
21581;SDS011;10952;50.836;4.348;2022-10-16T08:59:02;7.73;;;2.90;;
21581;SDS011;10952;50.836;4.348;2022-10-16T09:01:38;8.73;;;2.53;;
21581;SDS011;10952;50.836;4.348;2022-10-16T09:06:56;6.97;;;2.33;;
21581;SDS011;10952;50.836;4.348;2022-10-16T09:17:41;5.03;;;1.70;;
21581;SDS011;10952;50.836;4.348;2022-10-16T09:21:09;7.03;;;1.80;;
21581;SDS011;10952;50.836;4.348;2022-10-16T09:23:22;8.43;;;2.23;;
21581;SDS011;10952;50.836;4.348;2022-10-16T09:25:53;9.67;;;2.23;;
21581;SDS011;10952;50.836;4.348;2022-10-16T09:28:20;4.77;;;2.13;;
21581;SDS011;10952;50.836;4.348;2022-10-16T09:30:46;5.90;;;1.80;;
21581;SDS011;10952;50.836;4.348;2022-10-16T09:33:16;9.37;;;2.03;;
21581;SDS011;10952;50.836;4.348;2022-10-16T09:35:48;7.33;;;2.13;;
21581;SDS011;10952;50.836;4.348;2022-10-16T09:38:32;10.67;;;2.00;;
21581;SDS011;10952;50.836;4.348;2022-10-16T09:41:01;5.40;;;1.50;;
21581;SDS011;10952;50.836;4.348;2022-10-16T09:43:56;6.07;;;1.70;;
21581;SDS011;10952;50.836;4.348;2022-10-16T09:46:42;3.97;;;1.43;;
21581;SDS011;10952;50.836;4.348;2022-10-16T09:49:21;8.80;;;2.07;;
21581;SDS011;10952;50.836;4.348;2022-10-16T09:51:49;12.17;;;3.10;;
21581;SDS011;10952;50.836;4.348;2022-10-16T09:54:16;8.87;;;2.10;;
21581;SDS011;10952;50.836;4.348;2022-10-16T09:56:44;7.03;;;2.27;;
21581;SDS011;10952;50.836;4.348;2022-10-16T09:59:15;6.93;;;1.57;;
21581;SDS011;10952;50.836;4.348;2022-10-16T10:01:51;5.77;;;1.90;;
21581;SDS011;10952;50.836;4.348;2022-10-16T10:04:18;5.27;;;2.10;;
21581;SDS011;10952;50.836;4.348;2022-10-16T10:06:55;9.10;;;3.90;;
21581;SDS011;10952;50.836;4.348;2022-10-16T10:12:02;6.47;;;3.03;;
21581;SDS011;10952;50.836;4.348;2022-10-16T10:14:34;6.17;;;3.23;;
21581;SDS011;10952;50.836;4.348;2022-10-16T10:19:53;6.40;;;2.10;;
21581;SDS011;10952;50.836;4.348;2022-10-16T10:27:21;11.13;;;2.43;;
21581;SDS011;10952;50.836;4.348;2022-10-16T10:52:27;7.90;;;3.00;;
21581;SDS011;10952;50.836;4.348;2022-10-16T11:01:14;7.37;;;2.07;;
21581;SDS011;10952;50.836;4.348;2022-10-16T11:06:15;9.13;;;2.63;;
21581;SDS011;10952;50.836;4.348;2022-10-16T11:08:46;10.27;;;2.60;;
21581;SDS011;10952;50.836;4.348;2022-10-16T11:11:23;10.30;;;3.93;;
21581;SDS011;10952;50.836;4.348;2022-10-16T11:14:00;5.75;;;2.58;;
21581;SDS011;10952;50.836;4.348;2022-10-16T11:16:33;7.07;;;1.80;;
21581;SDS011;10952;50.836;4.348;2022-10-16T11:21:29;11.32;;;2.53;;
21581;SDS011;10952;50.836;4.348;2022-10-16T11:24:23;6.40;;;1.65;;
21581;SDS011;10952;50.836;4.348;2022-10-16T11:26:50;6.75;;;1.73;;
21581;SDS011;10952;50.836;4.348;2022-10-16T11:29:27;6.35;;;2.38;;
21581;SDS011;10952;50.836;4.348;2022-10-16T11:31:58;8.27;;;2.40;;
21581;SDS011;10952;50.836;4.348;2022-10-16T11:34:44;7.28;;;2.00;;
21581;SDS011;10952;50.836;4.348;2022-10-16T11:37:17;4.57;;;1.75;;
21581;SDS011;10952;50.836;4.348;2022-10-16T11:39:50;3.95;;;1.55;;
21581;SDS011;10952;50.836;4.348;2022-10-16T11:42:39;4.93;;;1.50;;
21581;SDS011;10952;50.836;4.348;2022-10-16T11:47:41;7.10;;;1.92;;
21581;SDS011;10952;50.836;4.348;2022-10-16T11:55:18;7.85;;;3.00;;
21581;SDS011;10952;50.836;4.348;2022-10-16T11:57:49;6.43;;;1.90;;
21581;SDS011;10952;50.836;4.348;2022-10-16T12:00:24;3.95;;;1.70;;
21581;SDS011;10952;50.836;4.348;2022-10-16T12:05:55;7.23;;;4.10;;
21581;SDS011;10952;50.836;4.348;2022-10-16T12:08:45;6.23;;;2.30;;
21581;SDS011;10952;50.836;4.348;2022-10-16T12:11:31;6.37;;;2.53;;
21581;SDS011;10952;50.836;4.348;2022-10-16T12:16:38;8.40;;;3.00;;
21581;SDS011;10952;50.836;4.348;2022-10-16T12:19:15;6.93;;;1.63;;
21581;SDS011;10952;50.836;4.348;2022-10-16T12:21:42;6.63;;;1.07;;
21581;SDS011;10952;50.836;4.348;2022-10-16T12:26:56;7.93;;;1.83;;
21581;SDS011;10952;50.836;4.348;2022-10-16T12:31:56;7.43;;;3.70;;
21581;SDS011;10952;50.836;4.348;2022-10-16T12:34:23;6.60;;;2.27;;
21581;SDS011;10952;50.836;4.348;2022-10-16T12:37:07;5.50;;;1.73;;
21581;SDS011;10952;50.836;4.348;2022-10-16T12:39:53;5.40;;;1.67;;
21581;SDS011;10952;50.836;4.348;2022-10-16T12:44:48;7.37;;;1.90;;
21581;SDS011;10952;50.836;4.348;2022-10-16T12:47:20;7.30;;;1.30;;
21581;SDS011;10952;50.836;4.348;2022-10-16T12:50:00;6.17;;;1.20;;
21581;SDS011;10952;50.836;4.348;2022-10-16T12:55:01;5.50;;;1.50;;
21581;SDS011;10952;50.836;4.348;2022-10-16T12:57:49;9.23;;;2.10;;
21581;SDS011;10952;50.836;4.348;2022-10-16T13:03:28;10.87;;;2.67;;
21581;SDS011;10952;50.836;4.348;2022-10-16T13:11:03;6.70;;;2.00;;
21581;SDS011;10952;50.836;4.348;2022-10-16T13:13:47;6.17;;;2.00;;
21581;SDS011;10952;50.836;4.348;2022-10-16T13:18:58;4.97;;;1.80;;
21581;SDS011;10952;50.836;4.348;2022-10-16T13:21:50;2.70;;;1.03;;
21581;SDS011;10952;50.836;4.348;2022-10-16T13:30:28;4.50;;;1.10;;
21581;SDS011;10952;50.836;4.348;2022-10-16T13:33:02;4.17;;;0.90;;
21581;SDS011;10952;50.836;4.348;2022-10-16T13:35:50;4.07;;;1.00;;
21581;SDS011;10952;50.836;4.348;2022-10-16T13:38:22;5.00;;;1.17;;
21581;SDS011;10952;50.836;4.348;2022-10-16T13:43:32;2.80;;;0.90;;
21581;SDS011;10952;50.836;4.348;2022-10-16T13:48:43;4.00;;;1.30;;
21581;SDS011;10952;50.836;4.348;2022-10-16T13:51:18;4.87;;;1.30;;
21581;SDS011;10952;50.836;4.348;2022-10-16T13:53:44;3.03;;;1.00;;
21581;SDS011;10952;50.836;4.348;2022-10-16T13:56:12;6.33;;;1.33;;
21581;SDS011;10952;50.836;4.348;2022-10-16T13:58:40;7.23;;;1.73;;
21581;SDS011;10952;50.836;4.348;2022-10-16T14:01:40;6.27;;;1.07;;
21581;SDS011;10952;50.836;4.348;2022-10-16T14:04:09;3.07;;;1.10;;
21581;SDS011;10952;50.836;4.348;2022-10-16T14:06:42;4.23;;;1.27;;
21581;SDS011;10952;50.836;4.348;2022-10-16T14:09:14;4.37;;;1.40;;
21581;SDS011;10952;50.836;4.348;2022-10-16T14:14:26;3.27;;;1.67;;
21581;SDS011;10952;50.836;4.348;2022-10-16T14:17:00;3.43;;;1.03;;
21581;SDS011;10952;50.836;4.348;2022-10-16T14:19:28;2.97;;;1.00;;
21581;SDS011;10952;50.836;4.348;2022-10-16T14:21:55;5.50;;;1.40;;
21581;SDS011;10952;50.836;4.348;2022-10-16T14:26:56;5.03;;;1.00;;
21581;SDS011;10952;50.836;4.348;2022-10-16T14:29:23;5.10;;;0.90;;
21581;SDS011;10952;50.836;4.348;2022-10-16T14:32:05;4.73;;;1.43;;
21581;SDS011;10952;50.836;4.348;2022-10-16T14:34:32;6.17;;;1.20;;
21581;SDS011;10952;50.836;4.348;2022-10-16T14:37:00;5.67;;;1.17;;
21581;SDS011;10952;50.836;4.348;2022-10-16T14:39:32;3.00;;;1.57;;
21581;SDS011;10952;50.836;4.348;2022-10-16T14:41:58;6.30;;;1.33;;
21581;SDS011;10952;50.836;4.348;2022-10-16T14:44:28;4.77;;;1.40;;
21581;SDS011;10952;50.836;4.348;2022-10-16T14:46:57;4.20;;;1.10;;
21581;SDS011;10952;50.836;4.348;2022-10-16T14:49:24;2.43;;;0.90;;
21581;SDS011;10952;50.836;4.348;2022-10-16T14:51:50;3.47;;;1.00;;
21581;SDS011;10952;50.836;4.348;2022-10-16T14:54:18;4.97;;;1.40;;
21581;SDS011;10952;50.836;4.348;2022-10-16T14:56:48;4.10;;;1.27;;
21581;SDS011;10952;50.836;4.348;2022-10-16T14:59:22;6.10;;;1.53;;
21581;SDS011;10952;50.836;4.348;2022-10-16T15:01:53;2.60;;;1.30;;
21581;SDS011;10952;50.836;4.348;2022-10-16T15:04:19;5.60;;;1.60;;
21581;SDS011;10952;50.836;4.348;2022-10-16T15:06:45;3.17;;;1.37;;
21581;SDS011;10952;50.836;4.348;2022-10-16T15:09:11;4.20;;;1.27;;
21581;SDS011;10952;50.836;4.348;2022-10-16T15:11:36;10.63;;;1.40;;
21581;SDS011;10952;50.836;4.348;2022-10-16T15:14:02;6.43;;;1.47;;
21581;SDS011;10952;50.836;4.348;2022-10-16T15:16:28;3.23;;;1.27;;
21581;SDS011;10952;50.836;4.348;2022-10-16T15:18:55;6.53;;;1.67;;
21581;SDS011;10952;50.836;4.348;2022-10-16T15:21:28;5.17;;;1.63;;
21581;SDS011;10952;50.836;4.348;2022-10-16T15:23:55;6.90;;;1.87;;
21581;SDS011;10952;50.836;4.348;2022-10-16T15:26:22;7.53;;;2.27;;
21581;SDS011;10952;50.836;4.348;2022-10-16T15:28:49;5.83;;;1.27;;
21581;SDS011;10952;50.836;4.348;2022-10-16T15:31:15;6.60;;;1.50;;
21581;SDS011;10952;50.836;4.348;2022-10-16T15:33:40;5.13;;;1.10;;
21581;SDS011;10952;50.836;4.348;2022-10-16T15:36:06;5.37;;;1.77;;
21581;SDS011;10952;50.836;4.348;2022-10-16T15:38:32;7.23;;;3.20;;
21581;SDS011;10952;50.836;4.348;2022-10-16T15:40:58;8.20;;;1.57;;
21581;SDS011;10952;50.836;4.348;2022-10-16T15:43:24;5.17;;;1.43;;
21581;SDS011;10952;50.836;4.348;2022-10-16T15:48:30;6.97;;;1.63;;
21581;SDS011;10952;50.836;4.348;2022-10-16T15:50:57;4.70;;;1.93;;
21581;SDS011;10952;50.836;4.348;2022-10-16T15:53:23;6.10;;;2.40;;
21581;SDS011;10952;50.836;4.348;2022-10-16T15:55:48;7.77;;;2.57;;
21581;SDS011;10952;50.836;4.348;2022-10-16T15:58:14;8.60;;;2.13;;
21581;SDS011;10952;50.836;4.348;2022-10-16T16:00:40;20.27;;;5.60;;
21581;SDS011;10952;50.836;4.348;2022-10-16T16:03:06;7.13;;;2.03;;
21581;SDS011;10952;50.836;4.348;2022-10-16T16:05:31;4.17;;;1.90;;
21581;SDS011;10952;50.836;4.348;2022-10-16T16:07:58;7.93;;;2.43;;
21581;SDS011;10952;50.836;4.348;2022-10-16T16:10:24;8.07;;;3.33;;
21581;SDS011;10952;50.836;4.348;2022-10-16T16:12:49;13.87;;;8.37;;
21581;SDS011;10952;50.836;4.348;2022-10-16T16:15:18;10.10;;;4.53;;
21581;SDS011;10952;50.836;4.348;2022-10-16T16:17:44;9.17;;;2.80;;
21581;SDS011;10952;50.836;4.348;2022-10-16T16:20:11;10.70;;;3.03;;
21581;SDS011;10952;50.836;4.348;2022-10-16T16:22:37;7.57;;;2.50;;
21581;SDS011;10952;50.836;4.348;2022-10-16T16:25:02;5.20;;;2.83;;
21581;SDS011;10952;50.836;4.348;2022-10-16T16:27:28;7.00;;;2.17;;
21581;SDS011;10952;50.836;4.348;2022-10-16T16:29:57;7.10;;;2.80;;
21581;SDS011;10952;50.836;4.348;2022-10-16T16:32:23;7.93;;;2.57;;
21581;SDS011;10952;50.836;4.348;2022-10-16T16:34:49;10.00;;;3.90;;
21581;SDS011;10952;50.836;4.348;2022-10-16T16:37:14;5.60;;;2.30;;
21581;SDS011;10952;50.836;4.348;2022-10-16T16:39:40;5.93;;;1.97;;
21581;SDS011;10952;50.836;4.348;2022-10-16T16:42:06;9.43;;;3.27;;
21581;SDS011;10952;50.836;4.348;2022-10-16T16:44:32;5.90;;;2.90;;
21581;SDS011;10952;50.836;4.348;2022-10-16T16:46:58;8.00;;;3.43;;
21581;SDS011;10952;50.836;4.348;2022-10-16T16:49:24;10.50;;;3.67;;
21581;SDS011;10952;50.836;4.348;2022-10-16T16:51:49;7.17;;;2.53;;
21581;SDS011;10952;50.836;4.348;2022-10-16T16:54:15;12.23;;;3.13;;
21581;SDS011;10952;50.836;4.348;2022-10-16T16:56:41;11.03;;;3.13;;
21581;SDS011;10952;50.836;4.348;2022-10-16T16:59:11;10.37;;;3.73;;
21581;SDS011;10952;50.836;4.348;2022-10-16T17:01:41;8.40;;;3.03;;
21581;SDS011;10952;50.836;4.348;2022-10-16T17:04:06;12.20;;;3.50;;
21581;SDS011;10952;50.836;4.348;2022-10-16T17:06:32;13.00;;;5.47;;
21581;SDS011;10952;50.836;4.348;2022-10-16T17:09:00;9.70;;;3.43;;
21581;SDS011;10952;50.836;4.348;2022-10-16T17:11:27;14.97;;;4.07;;
21581;SDS011;10952;50.836;4.348;2022-10-16T17:13:53;10.37;;;3.87;;
21581;SDS011;10952;50.836;4.348;2022-10-16T17:16:21;8.53;;;4.17;;
21581;SDS011;10952;50.836;4.348;2022-10-16T17:18:47;8.27;;;3.60;;
21581;SDS011;10952;50.836;4.348;2022-10-16T17:21:13;9.03;;;3.37;;
21581;SDS011;10952;50.836;4.348;2022-10-16T17:23:39;10.90;;;4.53;;